sensor_id;sensor_type;location;lat;lon;timestamp;P1;durP1;ratioP1;P2;durP2;ratioP2
71176;SDS011;58877;51.992;4.504;2023-06-26T00:01:18;3.96;;;3.96;;
71176;SDS011;58877;51.992;4.504;2023-06-26T00:03:47;4.01;;;4.01;;
71176;SDS011;58877;51.992;4.504;2023-06-26T00:06:13;4.34;;;4.34;;
71176;SDS011;58877;51.992;4.504;2023-06-26T00:08:39;4.32;;;4.29;;
71176;SDS011;58877;51.992;4.504;2023-06-26T00:11:05;4.36;;;4.35;;
71176;SDS011;58877;51.992;4.504;2023-06-26T00:13:30;4.07;;;4.07;;
71176;SDS011;58877;51.992;4.504;2023-06-26T00:15:56;4.27;;;4.27;;
71176;SDS011;58877;51.992;4.504;2023-06-26T00:18:22;4.02;;;4.02;;
71176;SDS011;58877;51.992;4.504;2023-06-26T00:20:48;4.33;;;4.33;;
71176;SDS011;58877;51.992;4.504;2023-06-26T00:23:18;4.38;;;4.38;;
71176;SDS011;58877;51.992;4.504;2023-06-26T00:25:44;4.00;;;4.00;;
71176;SDS011;58877;51.992;4.504;2023-06-26T00:28:09;4.07;;;4.07;;
71176;SDS011;58877;51.992;4.504;2023-06-26T00:30:35;3.54;;;3.54;;
71176;SDS011;58877;51.992;4.504;2023-06-26T00:33:01;3.71;;;3.71;;
71176;SDS011;58877;51.992;4.504;2023-06-26T00:35:27;3.61;;;3.60;;
71176;SDS011;58877;51.992;4.504;2023-06-26T00:37:52;3.90;;;3.85;;
71176;SDS011;58877;51.992;4.504;2023-06-26T00:40:18;4.15;;;4.08;;
71176;SDS011;58877;51.992;4.504;2023-06-26T00:42:44;3.54;;;3.50;;
71176;SDS011;58877;51.992;4.504;2023-06-26T00:45:10;3.60;;;3.57;;
71176;SDS011;58877;51.992;4.504;2023-06-26T00:47:36;3.61;;;3.58;;
71176;SDS011;58877;51.992;4.504;2023-06-26T00:50:02;4.01;;;3.91;;
71176;SDS011;58877;51.992;4.504;2023-06-26T00:52:28;3.62;;;3.52;;
71176;SDS011;58877;51.992;4.504;2023-06-26T00:54:55;3.82;;;3.65;;
71176;SDS011;58877;51.992;4.504;2023-06-26T00:57:21;3.82;;;3.65;;
71176;SDS011;58877;51.992;4.504;2023-06-26T00:59:47;3.86;;;3.74;;
71176;SDS011;58877;51.992;4.504;2023-06-26T01:02:14;4.17;;;4.08;;
71176;SDS011;58877;51.992;4.504;2023-06-26T01:04:42;3.71;;;3.62;;
71176;SDS011;58877;51.992;4.504;2023-06-26T01:07:12;4.02;;;3.85;;
71176;SDS011;58877;51.992;4.504;2023-06-26T01:09:39;4.45;;;4.21;;
71176;SDS011;58877;51.992;4.504;2023-06-26T01:12:05;4.42;;;4.25;;
71176;SDS011;58877;51.992;4.504;2023-06-26T01:14:31;4.48;;;4.27;;
71176;SDS011;58877;51.992;4.504;2023-06-26T01:17:00;3.75;;;3.60;;
71176;SDS011;58877;51.992;4.504;2023-06-26T01:19:27;4.33;;;4.17;;
71176;SDS011;58877;51.992;4.504;2023-06-26T01:27:40;4.79;;;4.51;;
71176;SDS011;58877;51.992;4.504;2023-06-26T01:30:08;4.96;;;4.56;;
71176;SDS011;58877;51.992;4.504;2023-06-26T01:32:36;5.31;;;4.88;;
71176;SDS011;58877;51.992;4.504;2023-06-26T01:35:05;5.42;;;5.06;;
71176;SDS011;58877;51.992;4.504;2023-06-26T01:37:32;4.98;;;4.69;;
71176;SDS011;58877;51.992;4.504;2023-06-26T01:39:57;4.66;;;4.36;;
71176;SDS011;58877;51.992;4.504;2023-06-26T01:42:23;5.55;;;5.13;;
71176;SDS011;58877;51.992;4.504;2023-06-26T01:44:50;4.96;;;4.63;;
71176;SDS011;58877;51.992;4.504;2023-06-26T01:47:19;5.41;;;4.92;;
71176;SDS011;58877;51.992;4.504;2023-06-26T01:50:14;5.52;;;5.03;;
71176;SDS011;58877;51.992;4.504;2023-06-26T01:52:42;5.27;;;4.78;;
71176;SDS011;58877;51.992;4.504;2023-06-26T01:55:26;5.30;;;4.86;;
71176;SDS011;58877;51.992;4.504;2023-06-26T01:58:01;5.00;;;4.61;;
71176;SDS011;58877;51.992;4.504;2023-06-26T02:00:28;5.06;;;4.76;;
71176;SDS011;58877;51.992;4.504;2023-06-26T02:02:54;5.20;;;4.75;;
71176;SDS011;58877;51.992;4.504;2023-06-26T02:05:20;4.82;;;4.46;;
71176;SDS011;58877;51.992;4.504;2023-06-26T02:07:45;5.38;;;4.88;;
71176;SDS011;58877;51.992;4.504;2023-06-26T02:10:11;4.96;;;4.59;;
71176;SDS011;58877;51.992;4.504;2023-06-26T02:12:37;5.29;;;4.92;;
71176;SDS011;58877;51.992;4.504;2023-06-26T02:15:03;5.19;;;4.78;;
71176;SDS011;58877;51.992;4.504;2023-06-26T02:17:29;5.35;;;4.98;;
71176;SDS011;58877;51.992;4.504;2023-06-26T02:19:55;5.18;;;4.79;;
71176;SDS011;58877;51.992;4.504;2023-06-26T02:22:21;5.15;;;4.77;;
71176;SDS011;58877;51.992;4.504;2023-06-26T02:24:47;4.61;;;4.27;;
71176;SDS011;58877;51.992;4.504;2023-06-26T02:27:13;4.40;;;4.13;;
71176;SDS011;58877;51.992;4.504;2023-06-26T02:29:40;4.29;;;4.03;;
71176;SDS011;58877;51.992;4.504;2023-06-26T02:32:06;4.67;;;4.41;;
71176;SDS011;58877;51.992;4.504;2023-06-26T02:34:34;4.41;;;4.14;;
71176;SDS011;58877;51.992;4.504;2023-06-26T02:37:00;4.52;;;4.31;;
71176;SDS011;58877;51.992;4.504;2023-06-26T02:39:26;4.67;;;4.35;;
71176;SDS011;58877;51.992;4.504;2023-06-26T02:41:52;4.67;;;4.21;;
71176;SDS011;58877;51.992;4.504;2023-06-26T02:44:18;4.79;;;4.28;;
71176;SDS011;58877;51.992;4.504;2023-06-26T02:46:44;4.89;;;4.44;;
71176;SDS011;58877;51.992;4.504;2023-06-26T02:49:10;4.96;;;4.57;;
71176;SDS011;58877;51.992;4.504;2023-06-26T02:51:35;5.08;;;4.64;;
71176;SDS011;58877;51.992;4.504;2023-06-26T02:54:01;4.69;;;4.31;;
71176;SDS011;58877;51.992;4.504;2023-06-26T02:56:27;4.71;;;4.42;;
71176;SDS011;58877;51.992;4.504;2023-06-26T02:58:57;4.41;;;4.13;;
71176;SDS011;58877;51.992;4.504;2023-06-26T03:01:22;4.24;;;4.00;;
71176;SDS011;58877;51.992;4.504;2023-06-26T03:03:48;4.88;;;4.51;;
71176;SDS011;58877;51.992;4.504;2023-06-26T03:06:14;5.02;;;4.59;;
71176;SDS011;58877;51.992;4.504;2023-06-26T03:08:40;5.43;;;4.94;;
71176;SDS011;58877;51.992;4.504;2023-06-26T03:11:07;5.17;;;4.65;;
71176;SDS011;58877;51.992;4.504;2023-06-26T03:13:36;4.69;;;4.27;;
71176;SDS011;58877;51.992;4.504;2023-06-26T03:16:02;4.92;;;4.52;;
71176;SDS011;58877;51.992;4.504;2023-06-26T03:18:29;4.51;;;4.22;;
71176;SDS011;58877;51.992;4.504;2023-06-26T03:20:55;5.21;;;4.80;;
71176;SDS011;58877;51.992;4.504;2023-06-26T03:23:22;4.93;;;4.55;;
71176;SDS011;58877;51.992;4.504;2023-06-26T03:25:48;5.38;;;4.89;;
71176;SDS011;58877;51.992;4.504;2023-06-26T03:28:14;4.70;;;4.22;;
71176;SDS011;58877;51.992;4.504;2023-06-26T03:30:40;5.64;;;5.07;;
71176;SDS011;58877;51.992;4.504;2023-06-26T03:33:06;5.31;;;4.77;;
71176;SDS011;58877;51.992;4.504;2023-06-26T03:35:31;5.46;;;4.94;;
71176;SDS011;58877;51.992;4.504;2023-06-26T03:37:57;4.50;;;4.15;;
71176;SDS011;58877;51.992;4.504;2023-06-26T03:40:23;4.64;;;4.27;;
71176;SDS011;58877;51.992;4.504;2023-06-26T03:42:49;4.99;;;4.55;;
71176;SDS011;58877;51.992;4.504;2023-06-26T03:45:15;4.81;;;4.33;;
71176;SDS011;58877;51.992;4.504;2023-06-26T03:47:44;5.09;;;4.56;;
71176;SDS011;58877;51.992;4.504;2023-06-26T03:50:14;4.45;;;4.07;;
71176;SDS011;58877;51.992;4.504;2023-06-26T03:52:40;4.95;;;4.59;;
71176;SDS011;58877;51.992;4.504;2023-06-26T03:55:06;4.63;;;4.28;;
71176;SDS011;58877;51.992;4.504;2023-06-26T03:57:32;4.20;;;3.85;;
71176;SDS011;58877;51.992;4.504;2023-06-26T03:59:57;4.92;;;4.53;;
71176;SDS011;58877;51.992;4.504;2023-06-26T04:02:23;4.76;;;4.37;;
71176;SDS011;58877;51.992;4.504;2023-06-26T04:04:48;4.32;;;4.07;;
71176;SDS011;58877;51.992;4.504;2023-06-26T04:07:14;3.92;;;3.76;;
71176;SDS011;58877;51.992;4.504;2023-06-26T04:09:40;4.60;;;4.37;;
71176;SDS011;58877;51.992;4.504;2023-06-26T04:12:06;4.69;;;4.37;;
71176;SDS011;58877;51.992;4.504;2023-06-26T04:14:32;4.69;;;4.23;;
71176;SDS011;58877;51.992;4.504;2023-06-26T04:16:57;4.55;;;4.12;;
71176;SDS011;58877;51.992;4.504;2023-06-26T04:19:23;5.00;;;4.58;;
71176;SDS011;58877;51.992;4.504;2023-06-26T04:21:49;4.59;;;4.20;;
71176;SDS011;58877;51.992;4.504;2023-06-26T04:24:14;4.28;;;3.92;;
71176;SDS011;58877;51.992;4.504;2023-06-26T04:26:40;4.68;;;4.25;;
71176;SDS011;58877;51.992;4.504;2023-06-26T04:29:10;4.31;;;3.94;;
71176;SDS011;58877;51.992;4.504;2023-06-26T04:31:36;4.52;;;4.17;;
71176;SDS011;58877;51.992;4.504;2023-06-26T04:34:02;3.52;;;3.33;;
71176;SDS011;58877;51.992;4.504;2023-06-26T04:36:27;3.94;;;3.77;;
71176;SDS011;58877;51.992;4.504;2023-06-26T04:38:54;3.30;;;3.19;;
71176;SDS011;58877;51.992;4.504;2023-06-26T04:41:20;3.41;;;3.27;;
71176;SDS011;58877;51.992;4.504;2023-06-26T04:43:47;3.78;;;3.58;;
71176;SDS011;58877;51.992;4.504;2023-06-26T04:46:12;3.09;;;2.98;;
71176;SDS011;58877;51.992;4.504;2023-06-26T04:48:47;2.99;;;2.91;;
71176;SDS011;58877;51.992;4.504;2023-06-26T04:51:13;3.64;;;3.49;;
71176;SDS011;58877;51.992;4.504;2023-06-26T04:53:38;3.21;;;3.05;;
71176;SDS011;58877;51.992;4.504;2023-06-26T04:56:10;3.34;;;3.19;;
71176;SDS011;58877;51.992;4.504;2023-06-26T04:58:56;3.71;;;3.56;;
71176;SDS011;58877;51.992;4.504;2023-06-26T05:01:21;3.59;;;3.45;;
71176;SDS011;58877;51.992;4.504;2023-06-26T05:03:47;3.53;;;3.41;;
71176;SDS011;58877;51.992;4.504;2023-06-26T05:06:13;3.33;;;3.25;;
71176;SDS011;58877;51.992;4.504;2023-06-26T05:08:38;3.90;;;3.78;;
71176;SDS011;58877;51.992;4.504;2023-06-26T05:11:04;3.29;;;3.21;;
71176;SDS011;58877;51.992;4.504;2023-06-26T05:13:30;3.03;;;2.98;;
71176;SDS011;58877;51.992;4.504;2023-06-26T05:15:56;3.34;;;3.29;;
71176;SDS011;58877;51.992;4.504;2023-06-26T05:18:21;2.93;;;2.90;;
71176;SDS011;58877;51.992;4.504;2023-06-26T05:20:47;3.64;;;3.60;;
71176;SDS011;58877;51.992;4.504;2023-06-26T05:23:13;2.85;;;2.83;;
71176;SDS011;58877;51.992;4.504;2023-06-26T05:25:41;2.86;;;2.83;;
71176;SDS011;58877;51.992;4.504;2023-06-26T05:28:07;2.75;;;2.73;;
71176;SDS011;58877;51.992;4.504;2023-06-26T05:30:38;2.77;;;2.73;;
71176;SDS011;58877;51.992;4.504;2023-06-26T05:33:04;2.42;;;2.39;;
71176;SDS011;58877;51.992;4.504;2023-06-26T05:35:31;2.62;;;2.57;;
71176;SDS011;58877;51.992;4.504;2023-06-26T05:37:57;2.12;;;2.06;;
71176;SDS011;58877;51.992;4.504;2023-06-26T05:40:24;2.41;;;2.33;;
71176;SDS011;58877;51.992;4.504;2023-06-26T05:42:51;2.27;;;2.19;;
71176;SDS011;58877;51.992;4.504;2023-06-26T05:45:17;2.14;;;2.06;;
71176;SDS011;58877;51.992;4.504;2023-06-26T05:47:42;2.31;;;2.21;;
71176;SDS011;58877;51.992;4.504;2023-06-26T05:50:08;2.12;;;2.01;;
71176;SDS011;58877;51.992;4.504;2023-06-26T05:52:35;1.85;;;1.73;;
71176;SDS011;58877;51.992;4.504;2023-06-26T05:55:02;2.02;;;1.84;;
71176;SDS011;58877;51.992;4.504;2023-06-26T05:57:28;2.15;;;1.93;;
71176;SDS011;58877;51.992;4.504;2023-06-26T06:00:03;2.11;;;1.83;;
71176;SDS011;58877;51.992;4.504;2023-06-26T06:02:36;1.87;;;1.57;;
71176;SDS011;58877;51.992;4.504;2023-06-26T06:05:03;2.32;;;1.98;;
71176;SDS011;58877;51.992;4.504;2023-06-26T06:07:30;1.99;;;1.70;;
71176;SDS011;58877;51.992;4.504;2023-06-26T06:09:58;2.08;;;1.80;;
71176;SDS011;58877;51.992;4.504;2023-06-26T06:12:23;2.27;;;1.94;;
71176;SDS011;58877;51.992;4.504;2023-06-26T06:14:49;2.50;;;2.06;;
71176;SDS011;58877;51.992;4.504;2023-06-26T06:17:19;2.67;;;2.17;;
71176;SDS011;58877;51.992;4.504;2023-06-26T06:19:45;3.03;;;2.38;;
71176;SDS011;58877;51.992;4.504;2023-06-26T06:22:11;2.32;;;1.80;;
71176;SDS011;58877;51.992;4.504;2023-06-26T06:24:38;2.32;;;1.80;;
71176;SDS011;58877;51.992;4.504;2023-06-26T06:27:04;2.58;;;2.01;;
71176;SDS011;58877;51.992;4.504;2023-06-26T06:29:30;2.52;;;1.99;;
71176;SDS011;58877;51.992;4.504;2023-06-26T06:31:56;2.19;;;1.73;;
71176;SDS011;58877;51.992;4.504;2023-06-26T06:34:22;2.43;;;1.91;;
71176;SDS011;58877;51.992;4.504;2023-06-26T06:36:48;2.87;;;2.26;;
71176;SDS011;58877;51.992;4.504;2023-06-26T06:39:15;2.32;;;1.86;;
71176;SDS011;58877;51.992;4.504;2023-06-26T06:41:41;2.30;;;1.89;;
71176;SDS011;58877;51.992;4.504;2023-06-26T06:44:07;2.28;;;1.89;;
71176;SDS011;58877;51.992;4.504;2023-06-26T06:46:33;2.69;;;2.24;;
71176;SDS011;58877;51.992;4.504;2023-06-26T06:49:00;2.38;;;1.98;;
71176;SDS011;58877;51.992;4.504;2023-06-26T06:51:26;2.86;;;2.35;;
71176;SDS011;58877;51.992;4.504;2023-06-26T06:53:52;2.58;;;2.07;;
71176;SDS011;58877;51.992;4.504;2023-06-26T06:56:18;2.74;;;2.22;;
71176;SDS011;58877;51.992;4.504;2023-06-26T06:58:44;2.74;;;2.22;;
71176;SDS011;58877;51.992;4.504;2023-06-26T07:01:13;2.80;;;2.24;;
71176;SDS011;58877;51.992;4.504;2023-06-26T07:03:39;3.13;;;2.47;;
71176;SDS011;58877;51.992;4.504;2023-06-26T07:06:05;2.62;;;2.09;;
71176;SDS011;58877;51.992;4.504;2023-06-26T07:08:31;2.66;;;2.14;;
71176;SDS011;58877;51.992;4.504;2023-06-26T07:10:57;2.18;;;1.85;;
71176;SDS011;58877;51.992;4.504;2023-06-26T07:13:23;2.35;;;2.00;;
71176;SDS011;58877;51.992;4.504;2023-06-26T07:15:52;2.36;;;2.03;;
71176;SDS011;58877;51.992;4.504;2023-06-26T07:18:18;1.85;;;1.61;;
71176;SDS011;58877;51.992;4.504;2023-06-26T07:20:46;1.84;;;1.61;;
71176;SDS011;58877;51.992;4.504;2023-06-26T07:23:12;1.91;;;1.69;;
71176;SDS011;58877;51.992;4.504;2023-06-26T07:25:37;2.22;;;1.93;;
71176;SDS011;58877;51.992;4.504;2023-06-26T07:28:03;2.90;;;2.44;;
71176;SDS011;58877;51.992;4.504;2023-06-26T07:30:35;2.48;;;2.04;;
71176;SDS011;58877;51.992;4.504;2023-06-26T07:33:05;2.67;;;2.19;;
71176;SDS011;58877;51.992;4.504;2023-06-26T07:35:33;3.26;;;2.64;;
71176;SDS011;58877;51.992;4.504;2023-06-26T07:37:59;2.52;;;2.01;;
71176;SDS011;58877;51.992;4.504;2023-06-26T07:40:25;2.76;;;2.21;;
71176;SDS011;58877;51.992;4.504;2023-06-26T07:42:51;2.78;;;2.21;;
71176;SDS011;58877;51.992;4.504;2023-06-26T07:45:18;2.73;;;2.19;;
71176;SDS011;58877;51.992;4.504;2023-06-26T07:47:45;2.48;;;1.99;;
71176;SDS011;58877;51.992;4.504;2023-06-26T07:50:11;2.02;;;1.68;;
71176;SDS011;58877;51.992;4.504;2023-06-26T07:52:37;1.98;;;1.65;;
71176;SDS011;58877;51.992;4.504;2023-06-26T07:55:03;2.27;;;1.91;;
71176;SDS011;58877;51.992;4.504;2023-06-26T07:57:29;2.09;;;1.77;;
71176;SDS011;58877;51.992;4.504;2023-06-26T07:59:55;3.07;;;2.63;;
71176;SDS011;58877;51.992;4.504;2023-06-26T08:02:21;15.58;;;10.60;;
71176;SDS011;58877;51.992;4.504;2023-06-26T08:04:46;6.73;;;4.25;;
71176;SDS011;58877;51.992;4.504;2023-06-26T08:07:12;8.12;;;5.30;;
71176;SDS011;58877;51.992;4.504;2023-06-26T08:09:39;3.73;;;2.46;;
71176;SDS011;58877;51.992;4.504;2023-06-26T08:12:05;3.56;;;2.46;;
71176;SDS011;58877;51.992;4.504;2023-06-26T08:14:31;2.64;;;1.95;;
71176;SDS011;58877;51.992;4.504;2023-06-26T08:16:56;2.07;;;1.63;;
71176;SDS011;58877;51.992;4.504;2023-06-26T08:19:25;2.13;;;1.77;;
71176;SDS011;58877;51.992;4.504;2023-06-26T08:21:52;2.79;;;2.34;;
71176;SDS011;58877;51.992;4.504;2023-06-26T08:24:17;2.25;;;1.91;;
71176;SDS011;58877;51.992;4.504;2023-06-26T08:26:47;2.15;;;1.83;;
71176;SDS011;58877;51.992;4.504;2023-06-26T08:29:13;2.31;;;1.98;;
71176;SDS011;58877;51.992;4.504;2023-06-26T08:31:40;2.92;;;2.49;;
71176;SDS011;58877;51.992;4.504;2023-06-26T08:34:07;2.33;;;2.01;;
71176;SDS011;58877;51.992;4.504;2023-06-26T08:36:33;2.37;;;2.04;;
71176;SDS011;58877;51.992;4.504;2023-06-26T08:39:00;2.13;;;1.84;;
71176;SDS011;58877;51.992;4.504;2023-06-26T08:41:26;2.33;;;1.99;;
71176;SDS011;58877;51.992;4.504;2023-06-26T08:43:58;2.02;;;1.76;;
71176;SDS011;58877;51.992;4.504;2023-06-26T08:46:47;1.95;;;1.73;;
71176;SDS011;58877;51.992;4.504;2023-06-26T08:52:22;2.00;;;1.82;;
71176;SDS011;58877;51.992;4.504;2023-06-26T08:54:52;1.83;;;1.66;;
71176;SDS011;58877;51.992;4.504;2023-06-26T08:57:23;2.72;;;2.40;;
71176;SDS011;58877;51.992;4.504;2023-06-26T08:59:50;2.41;;;2.10;;
71176;SDS011;58877;51.992;4.504;2023-06-26T09:02:19;2.52;;;2.22;;
71176;SDS011;58877;51.992;4.504;2023-06-26T09:04:47;2.55;;;2.24;;
71176;SDS011;58877;51.992;4.504;2023-06-26T09:07:14;2.80;;;2.35;;
71176;SDS011;58877;51.992;4.504;2023-06-26T09:09:40;2.59;;;2.17;;
71176;SDS011;58877;51.992;4.504;2023-06-26T09:12:05;3.25;;;2.62;;
71176;SDS011;58877;51.992;4.504;2023-06-26T09:14:33;2.71;;;2.21;;
71176;SDS011;58877;51.992;4.504;2023-06-26T09:16:59;2.15;;;1.77;;
71176;SDS011;58877;51.992;4.504;2023-06-26T09:19:25;1.95;;;1.61;;
71176;SDS011;58877;51.992;4.504;2023-06-26T09:21:52;2.44;;;2.06;;
71176;SDS011;58877;51.992;4.504;2023-06-26T09:24:18;2.44;;;2.10;;
71176;SDS011;58877;51.992;4.504;2023-06-26T09:26:43;2.48;;;2.10;;
71176;SDS011;58877;51.992;4.504;2023-06-26T09:29:09;2.44;;;2.12;;
71176;SDS011;58877;51.992;4.504;2023-06-26T09:31:36;2.50;;;2.21;;
71176;SDS011;58877;51.992;4.504;2023-06-26T09:34:03;3.35;;;2.85;;
71176;SDS011;58877;51.992;4.504;2023-06-26T09:36:29;2.41;;;2.05;;
71176;SDS011;58877;51.992;4.504;2023-06-26T09:39:08;2.67;;;2.27;;
71176;SDS011;58877;51.992;4.504;2023-06-26T09:41:37;3.50;;;2.90;;
71176;SDS011;58877;51.992;4.504;2023-06-26T09:44:06;3.04;;;2.47;;
71176;SDS011;58877;51.992;4.504;2023-06-26T09:46:33;3.25;;;2.62;;
71176;SDS011;58877;51.992;4.504;2023-06-26T09:49:06;2.39;;;2.03;;
71176;SDS011;58877;51.992;4.504;2023-06-26T09:51:35;2.89;;;2.51;;
71176;SDS011;58877;51.992;4.504;2023-06-26T09:54:02;2.57;;;2.26;;
71176;SDS011;58877;51.992;4.504;2023-06-26T09:56:29;3.18;;;2.83;;
71176;SDS011;58877;51.992;4.504;2023-06-26T09:58:58;2.26;;;2.02;;
71176;SDS011;58877;51.992;4.504;2023-06-26T10:01:26;2.00;;;1.76;;
71176;SDS011;58877;51.992;4.504;2023-06-26T10:03:53;2.05;;;1.78;;
71176;SDS011;58877;51.992;4.504;2023-06-26T10:06:20;2.81;;;2.40;;
71176;SDS011;58877;51.992;4.504;2023-06-26T10:08:53;2.49;;;2.15;;
71176;SDS011;58877;51.992;4.504;2023-06-26T10:11:21;2.24;;;1.92;;
71176;SDS011;58877;51.992;4.504;2023-06-26T10:13:55;2.08;;;1.82;;
71176;SDS011;58877;51.992;4.504;2023-06-26T10:16:23;2.52;;;2.23;;
71176;SDS011;58877;51.992;4.504;2023-06-26T10:19:01;1.61;;;1.44;;
71176;SDS011;58877;51.992;4.504;2023-06-26T10:21:31;2.08;;;1.81;;
71176;SDS011;58877;51.992;4.504;2023-06-26T10:24:03;1.98;;;1.72;;
71176;SDS011;58877;51.992;4.504;2023-06-26T10:26:31;1.79;;;1.63;;
71176;SDS011;58877;51.992;4.504;2023-06-26T10:29:03;1.83;;;1.69;;
71176;SDS011;58877;51.992;4.504;2023-06-26T10:34:42;1.56;;;1.43;;
71176;SDS011;58877;51.992;4.504;2023-06-26T10:37:08;1.56;;;1.45;;
71176;SDS011;58877;51.992;4.504;2023-06-26T10:39:47;1.65;;;1.55;;
71176;SDS011;58877;51.992;4.504;2023-06-26T10:42:18;1.48;;;1.38;;
71176;SDS011;58877;51.992;4.504;2023-06-26T10:44:47;1.39;;;1.29;;
71176;SDS011;58877;51.992;4.504;2023-06-26T10:50:24;1.61;;;1.47;;
71176;SDS011;58877;51.992;4.504;2023-06-26T11:03:46;1.48;;;1.23;;
71176;SDS011;58877;51.992;4.504;2023-06-26T11:06:17;1.85;;;1.54;;
71176;SDS011;58877;51.992;4.504;2023-06-26T11:11:21;2.19;;;1.78;;
71176;SDS011;58877;51.992;4.504;2023-06-26T11:14:07;3.05;;;2.35;;
71176;SDS011;58877;51.992;4.504;2023-06-26T11:16:34;1.83;;;1.42;;
71176;SDS011;58877;51.992;4.504;2023-06-26T11:19:03;1.94;;;1.54;;
71176;SDS011;58877;51.992;4.504;2023-06-26T11:21:29;1.61;;;1.33;;
71176;SDS011;58877;51.992;4.504;2023-06-26T11:23:56;2.00;;;1.66;;
71176;SDS011;58877;51.992;4.504;2023-06-26T11:26:25;1.99;;;1.65;;
71176;SDS011;58877;51.992;4.504;2023-06-26T11:28:53;2.58;;;2.13;;
71176;SDS011;58877;51.992;4.504;2023-06-26T11:31:23;1.84;;;1.49;;
71176;SDS011;58877;51.992;4.504;2023-06-26T11:33:53;3.31;;;2.52;;
71176;SDS011;58877;51.992;4.504;2023-06-26T11:36:24;2.00;;;1.56;;
71176;SDS011;58877;51.992;4.504;2023-06-26T11:38:57;2.18;;;1.73;;
71176;SDS011;58877;51.992;4.504;2023-06-26T11:41:26;2.29;;;1.88;;
71176;SDS011;58877;51.992;4.504;2023-06-26T11:43:54;1.55;;;1.30;;
71176;SDS011;58877;51.992;4.504;2023-06-26T11:46:21;1.57;;;1.31;;
71176;SDS011;58877;51.992;4.504;2023-06-26T11:48:51;1.46;;;1.22;;
71176;SDS011;58877;51.992;4.504;2023-06-26T11:51:26;1.50;;;1.28;;
71176;SDS011;58877;51.992;4.504;2023-06-26T11:54:12;1.94;;;1.63;;
71176;SDS011;58877;51.992;4.504;2023-06-26T11:56:39;1.29;;;1.05;;
71176;SDS011;58877;51.992;4.504;2023-06-26T11:59:08;1.56;;;1.27;;
71176;SDS011;58877;51.992;4.504;2023-06-26T12:01:39;1.67;;;1.39;;
71176;SDS011;58877;51.992;4.504;2023-06-26T12:04:07;1.58;;;1.35;;
71176;SDS011;58877;51.992;4.504;2023-06-26T12:06:36;2.11;;;1.84;;
71176;SDS011;58877;51.992;4.504;2023-06-26T12:09:08;1.67;;;1.46;;
71176;SDS011;58877;51.992;4.504;2023-06-26T12:11:36;1.72;;;1.51;;
71176;SDS011;58877;51.992;4.504;2023-06-26T12:14:06;2.42;;;2.11;;
71176;SDS011;58877;51.992;4.504;2023-06-26T12:16:33;1.65;;;1.41;;
71176;SDS011;58877;51.992;4.504;2023-06-26T12:19:01;1.65;;;1.44;;
71176;SDS011;58877;51.992;4.504;2023-06-26T12:24:07;1.84;;;1.63;;
71176;SDS011;58877;51.992;4.504;2023-06-26T12:26:35;1.35;;;1.20;;
71176;SDS011;58877;51.992;4.504;2023-06-26T12:29:33;1.48;;;1.32;;
71176;SDS011;58877;51.992;4.504;2023-06-26T12:32:00;1.25;;;1.12;;
71176;SDS011;58877;51.992;4.504;2023-06-26T12:34:37;1.31;;;1.20;;
71176;SDS011;58877;51.992;4.504;2023-06-26T12:37:04;1.55;;;1.42;;
71176;SDS011;58877;51.992;4.504;2023-06-26T12:39:46;1.30;;;1.21;;
71176;SDS011;58877;51.992;4.504;2023-06-26T12:42:14;1.35;;;1.26;;
71176;SDS011;58877;51.992;4.504;2023-06-26T12:44:41;1.64;;;1.53;;
71176;SDS011;58877;51.992;4.504;2023-06-26T12:47:07;1.27;;;1.19;;
71176;SDS011;58877;51.992;4.504;2023-06-26T12:49:42;1.55;;;1.45;;
71176;SDS011;58877;51.992;4.504;2023-06-26T12:52:47;1.21;;;1.14;;
71176;SDS011;58877;51.992;4.504;2023-06-26T12:55:13;1.44;;;1.36;;
71176;SDS011;58877;51.992;4.504;2023-06-26T12:57:43;1.35;;;1.27;;
71176;SDS011;58877;51.992;4.504;2023-06-26T13:00:09;1.44;;;1.36;;
71176;SDS011;58877;51.992;4.504;2023-06-26T13:02:35;1.63;;;1.54;;
71176;SDS011;58877;51.992;4.504;2023-06-26T13:05:00;1.69;;;1.59;;
71176;SDS011;58877;51.992;4.504;2023-06-26T13:07:26;1.35;;;1.27;;
71176;SDS011;58877;51.992;4.504;2023-06-26T13:09:52;1.53;;;1.45;;
71176;SDS011;58877;51.992;4.504;2023-06-26T13:12:18;1.36;;;1.29;;
71176;SDS011;58877;51.992;4.504;2023-06-26T13:14:43;1.32;;;1.27;;
71176;SDS011;58877;51.992;4.504;2023-06-26T13:17:10;1.36;;;1.31;;
71176;SDS011;58877;51.992;4.504;2023-06-26T13:19:36;1.31;;;1.26;;
71176;SDS011;58877;51.992;4.504;2023-06-26T13:22:02;1.26;;;1.23;;
71176;SDS011;58877;51.992;4.504;2023-06-26T13:24:28;1.74;;;1.69;;
71176;SDS011;58877;51.992;4.504;2023-06-26T13:26:56;1.46;;;1.42;;
71176;SDS011;58877;51.992;4.504;2023-06-26T13:29:22;1.52;;;1.47;;
71176;SDS011;58877;51.992;4.504;2023-06-26T13:31:50;1.12;;;1.08;;
71176;SDS011;58877;51.992;4.504;2023-06-26T13:34:28;1.19;;;1.15;;
71176;SDS011;58877;51.992;4.504;2023-06-26T13:36:57;1.31;;;1.26;;
71176;SDS011;58877;51.992;4.504;2023-06-26T13:39:27;1.31;;;1.22;;
71176;SDS011;58877;51.992;4.504;2023-06-26T13:41:54;1.31;;;1.21;;
71176;SDS011;58877;51.992;4.504;2023-06-26T13:44:26;1.07;;;1.01;;
71176;SDS011;58877;51.992;4.504;2023-06-26T13:46:56;1.30;;;1.23;;
71176;SDS011;58877;51.992;4.504;2023-06-26T13:49:24;1.50;;;1.44;;
71176;SDS011;58877;51.992;4.504;2023-06-26T13:51:53;1.23;;;1.19;;
71176;SDS011;58877;51.992;4.504;2023-06-26T13:54:19;1.41;;;1.35;;
71176;SDS011;58877;51.992;4.504;2023-06-26T13:56:45;2.01;;;1.89;;
71176;SDS011;58877;51.992;4.504;2023-06-26T13:59:23;1.70;;;1.59;;
71176;SDS011;58877;51.992;4.504;2023-06-26T14:01:50;1.28;;;1.20;;
71176;SDS011;58877;51.992;4.504;2023-06-26T14:04:20;1.29;;;1.20;;
71176;SDS011;58877;51.992;4.504;2023-06-26T14:06:50;1.28;;;1.18;;
71176;SDS011;58877;51.992;4.504;2023-06-26T14:09:17;1.18;;;1.10;;
71176;SDS011;58877;51.992;4.504;2023-06-26T14:11:50;1.45;;;1.34;;
71176;SDS011;58877;51.992;4.504;2023-06-26T14:14:16;1.68;;;1.56;;
71176;SDS011;58877;51.992;4.504;2023-06-26T14:16:42;1.52;;;1.39;;
71176;SDS011;58877;51.992;4.504;2023-06-26T14:19:12;1.02;;;0.92;;
71176;SDS011;58877;51.992;4.504;2023-06-26T14:21:40;1.28;;;1.16;;
71176;SDS011;58877;51.992;4.504;2023-06-26T14:24:09;1.26;;;1.15;;
71176;SDS011;58877;51.992;4.504;2023-06-26T14:26:38;1.16;;;1.07;;
71176;SDS011;58877;51.992;4.504;2023-06-26T14:29:13;1.14;;;1.05;;
71176;SDS011;58877;51.992;4.504;2023-06-26T14:31:43;1.46;;;1.36;;
71176;SDS011;58877;51.992;4.504;2023-06-26T14:34:09;1.45;;;1.36;;
71176;SDS011;58877;51.992;4.504;2023-06-26T14:36:46;0.99;;;0.94;;
71176;SDS011;58877;51.992;4.504;2023-06-26T14:39:14;1.22;;;1.17;;
71176;SDS011;58877;51.992;4.504;2023-06-26T14:41:45;1.40;;;1.32;;
71176;SDS011;58877;51.992;4.504;2023-06-26T14:44:15;1.01;;;0.96;;
71176;SDS011;58877;51.992;4.504;2023-06-26T14:46:41;1.35;;;1.27;;
71176;SDS011;58877;51.992;4.504;2023-06-26T14:49:17;1.33;;;1.26;;
71176;SDS011;58877;51.992;4.504;2023-06-26T14:51:47;1.30;;;1.25;;
71176;SDS011;58877;51.992;4.504;2023-06-26T14:54:14;1.14;;;1.10;;
71176;SDS011;58877;51.992;4.504;2023-06-26T14:56:53;1.47;;;1.43;;
71176;SDS011;58877;51.992;4.504;2023-06-26T15:05:22;1.44;;;1.39;;
71176;SDS011;58877;51.992;4.504;2023-06-26T15:07:54;1.20;;;1.16;;
71176;SDS011;58877;51.992;4.504;2023-06-26T15:10:47;1.49;;;1.43;;
71176;SDS011;58877;51.992;4.504;2023-06-26T15:13:25;1.43;;;1.37;;
71176;SDS011;58877;51.992;4.504;2023-06-26T15:15:51;1.41;;;1.37;;
71176;SDS011;58877;51.992;4.504;2023-06-26T15:18:17;1.45;;;1.41;;
71176;SDS011;58877;51.992;4.504;2023-06-26T15:20:42;1.75;;;1.68;;
71176;SDS011;58877;51.992;4.504;2023-06-26T15:23:08;1.18;;;1.12;;
71176;SDS011;58877;51.992;4.504;2023-06-26T15:25:34;1.51;;;1.43;;
71176;SDS011;58877;51.992;4.504;2023-06-26T15:28:05;1.69;;;1.59;;
71176;SDS011;58877;51.992;4.504;2023-06-26T15:30:31;2.48;;;2.31;;